createdAt,value
2022-11-29T00:01:35.704Z,10.85
2022-11-29T00:04:02.984Z,9.80
2022-11-29T00:06:32.916Z,11.02
2022-11-29T00:09:04.403Z,9.88
2022-11-29T00:11:53.818Z,8.70
2022-11-29T00:14:21.959Z,9.73
2022-11-29T00:17:05.879Z,10.63
2022-11-29T00:19:34.590Z,9.70
2022-11-29T00:22:02.073Z,11.63
2022-11-29T00:24:31.751Z,10.07
2022-11-29T00:26:58.779Z,10.13
2022-11-29T00:29:25.697Z,10.25
2022-11-29T00:31:52.452Z,9.60
2022-11-29T00:34:19.268Z,9.43
2022-11-29T00:36:46.160Z,9.85
2022-11-29T00:39:13.269Z,8.82
2022-11-29T00:41:40.496Z,9.18
2022-11-29T00:44:07.297Z,9.60
2022-11-29T00:46:34.324Z,10.00
2022-11-29T00:49:01.158Z,8.68
2022-11-29T00:51:27.885Z,9.85
2022-11-29T00:53:54.608Z,9.15
2022-11-29T00:56:21.312Z,8.85
2022-11-29T00:58:49.374Z,9.18
2022-11-29T01:01:16.366Z,9.85
2022-11-29T01:03:43.549Z,8.82
2022-11-29T01:06:14.048Z,8.70
2022-11-29T01:08:40.999Z,9.30
2022-11-29T01:11:14.959Z,9.02
2022-11-29T01:13:42.652Z,8.88
2022-11-29T01:16:10.392Z,9.00
2022-11-29T01:18:38.230Z,8.80
2022-11-29T01:21:18.405Z,8.40
2022-11-29T01:23:46.013Z,8.48
2022-11-29T01:26:19.910Z,9.30
2022-11-29T01:28:51.280Z,10.63
2022-11-29T01:31:25.214Z,9.00
2022-11-29T01:33:58.226Z,9.30
2022-11-29T01:36:25.472Z,10.40
2022-11-29T01:38:53.563Z,10.48
2022-11-29T01:41:28.017Z,8.15
2022-11-29T01:44:06.180Z,8.90
2022-11-29T01:46:38.625Z,8.75
2022-11-29T01:49:15.036Z,8.02
2022-11-29T01:51:48.564Z,8.82
2022-11-29T01:54:15.460Z,10.70
2022-11-29T01:56:45.661Z,9.45
2022-11-29T01:59:16.455Z,7.90
2022-11-29T02:01:43.313Z,9.82
2022-11-29T02:04:10.597Z,8.27
2022-11-29T02:06:39.193Z,9.20
2022-11-29T02:09:20.032Z,8.80
2022-11-29T02:12:17.680Z,9.65
2022-11-29T02:15:14.089Z,7.78
2022-11-29T02:18:15.557Z,7.85
2022-11-29T02:21:11.984Z,8.20
2022-11-29T02:24:18.853Z,8.65
2022-11-29T02:27:06.652Z,9.98
2022-11-29T02:30:00.852Z,8.85
2022-11-29T02:32:48.496Z,9.07
2022-11-29T02:35:39.389Z,9.82
2022-11-29T02:38:52.612Z,8.13
2022-11-29T02:41:28.926Z,8.55
2022-11-29T02:44:12.736Z,8.70
2022-11-29T02:46:48.034Z,9.20
2022-11-29T02:49:49.477Z,10.13
2022-11-29T02:52:32.694Z,9.75
2022-11-29T02:55:13.736Z,10.65
2022-11-29T02:58:07.567Z,10.55
2022-11-29T03:00:39.448Z,9.30
2022-11-29T03:03:46.710Z,11.20
2022-11-29T03:06:40.892Z,8.88
2022-11-29T03:09:30.352Z,10.52
2022-11-29T03:12:19.716Z,10.50
2022-11-29T03:15:33.174Z,8.75
2022-11-29T03:18:57.761Z,9.02
2022-11-29T03:21:48.322Z,10.40
2022-11-29T03:24:37.376Z,9.80
2022-11-29T03:27:11.749Z,9.90
2022-11-29T03:29:47.898Z,9.40
2022-11-29T03:32:55.201Z,8.90
2022-11-29T03:35:40.858Z,8.57
2022-11-29T03:38:37.286Z,9.77
2022-11-29T03:41:21.472Z,9.90
2022-11-29T03:44:01.500Z,10.32
2022-11-29T03:46:31.101Z,10.15
2022-11-29T03:49:09.167Z,9.30
2022-11-29T03:52:03.104Z,9.88
2022-11-29T03:54:57.361Z,9.63
2022-11-29T03:57:35.752Z,7.88
2022-11-29T04:00:10.130Z,9.07
2022-11-29T04:03:03.025Z,8.93
2022-11-29T04:05:36.689Z,9.90
2022-11-29T04:08:38.508Z,10.90
2022-11-29T04:11:17.048Z,12.48
2022-11-29T04:14:17.654Z,9.52
2022-11-29T04:17:17.347Z,11.13
2022-11-29T04:20:27.891Z,9.60
2022-11-29T04:23:21.833Z,9.93
2022-11-29T04:26:11.587Z,10.30
2022-11-29T04:28:59.244Z,12.00
2022-11-29T04:31:49.488Z,9.82
2022-11-29T04:34:35.469Z,9.02
2022-11-29T04:37:37.340Z,8.00
2022-11-29T04:40:42.677Z,8.93
2022-11-29T04:43:49.858Z,8.32
2022-11-29T04:46:56.627Z,9.43
2022-11-29T04:49:26.121Z,8.77
2022-11-29T04:52:20.685Z,8.15
2022-11-29T04:55:10.730Z,8.80
2022-11-29T04:57:46.696Z,8.48
2022-11-29T05:00:23.246Z,7.97
2022-11-29T05:03:07.300Z,9.40
2022-11-29T05:06:33.129Z,10.35
2022-11-29T05:09:43.195Z,9.40
2022-11-29T05:12:47.874Z,8.15
2022-11-29T05:15:45.954Z,8.73
2022-11-29T05:18:37.960Z,9.65
2022-11-29T05:21:04.628Z,7.22
2022-11-29T05:24:03.468Z,9.68
2022-11-29T05:26:45.043Z,10.32
2022-11-29T05:29:28.708Z,8.52
2022-11-29T05:32:25.920Z,9.88
2022-11-29T05:35:03.872Z,8.45
2022-11-29T05:37:49.015Z,9.50
2022-11-29T05:40:40.903Z,7.88
2022-11-29T05:43:37.937Z,7.10
2022-11-29T05:46:31.589Z,8.40
2022-11-29T05:49:25.747Z,7.70
2022-11-29T05:52:08.164Z,8.45
2022-11-29T05:54:44.604Z,8.80
2022-11-29T05:57:39.160Z,8.15
2022-11-29T06:00:07.685Z,9.40
2022-11-29T06:02:58.609Z,8.35
2022-11-29T06:05:39.881Z,6.68
2022-11-29T06:08:18.458Z,8.15
2022-11-29T06:11:14.491Z,6.40
2022-11-29T06:14:34.319Z,7.93
2022-11-29T06:17:11.058Z,6.90
2022-11-29T06:20:17.217Z,7.60
2022-11-29T06:23:35.171Z,9.38
2022-11-29T06:26:19.727Z,8.27
2022-11-29T06:29:25.951Z,8.38
2022-11-29T06:32:10.973Z,8.85
2022-11-29T06:34:44.147Z,9.80
2022-11-29T06:37:33.165Z,9.88
2022-11-29T06:40:00.246Z,9.80
2022-11-29T06:42:26.994Z,7.82
2022-11-29T06:44:54.319Z,10.20
2022-11-29T06:47:34.739Z,9.82
2022-11-29T06:50:27.122Z,8.30
2022-11-29T06:53:17.835Z,8.98
2022-11-29T06:55:48.985Z,7.25
2022-11-29T06:58:56.033Z,8.35
2022-11-29T07:01:37.880Z,8.27
2022-11-29T07:04:33.272Z,7.32
2022-11-29T07:07:00.867Z,5.80
2022-11-29T07:09:34.672Z,7.40
2022-11-29T07:12:01.829Z,6.55
2022-11-29T07:14:28.908Z,7.30
2022-11-29T07:17:23.163Z,7.45
2022-11-29T07:20:12.757Z,7.88
2022-11-29T07:23:08.607Z,7.18
2022-11-29T07:25:43.707Z,7.50
2022-11-29T07:28:52.900Z,8.93
2022-11-29T07:31:31.573Z,7.90
2022-11-29T07:34:13.468Z,7.72
2022-11-29T07:36:51.956Z,10.27
2022-11-29T07:39:59.325Z,8.98
2022-11-29T07:42:31.888Z,10.18
2022-11-29T07:45:28.288Z,10.52
2022-11-29T07:47:55.067Z,9.30
2022-11-29T07:50:22.298Z,9.02
2022-11-29T07:52:49.869Z,9.85
2022-11-29T07:55:19.719Z,8.77
2022-11-29T07:57:47.895Z,8.70
2022-11-29T08:00:15.989Z,7.88
2022-11-29T08:02:43.165Z,6.80
2022-11-29T08:05:10.526Z,7.68
2022-11-29T08:07:38.959Z,8.63
2022-11-29T08:10:10.877Z,7.63
2022-11-29T08:12:44.225Z,7.55
2022-11-29T08:15:11.415Z,6.78
2022-11-29T08:17:39.511Z,6.70
2022-11-29T08:20:07.835Z,6.00
2022-11-29T08:22:34.887Z,6.60
2022-11-29T08:25:02.005Z,9.00
2022-11-29T08:27:31.749Z,7.05
2022-11-29T08:29:58.688Z,6.47
2022-11-29T08:32:26.930Z,7.75
2022-11-29T08:34:53.672Z,7.05
2022-11-29T08:37:20.845Z,7.25
2022-11-29T08:39:47.564Z,7.03
2022-11-29T08:42:14.304Z,7.80
2022-11-29T08:44:41.228Z,6.20
2022-11-29T08:47:28.400Z,7.65
2022-11-29T08:50:04.373Z,6.85
2022-11-29T08:52:55.793Z,6.40
2022-11-29T08:55:26.512Z,6.70
2022-11-29T08:57:56.187Z,6.18
2022-11-29T09:00:22.991Z,5.85
2022-11-29T09:02:49.830Z,6.97
2022-11-29T09:05:16.760Z,4.57
2022-11-29T09:07:44.075Z,5.38
2022-11-29T09:10:12.205Z,6.45
2022-11-29T09:12:40.671Z,5.47
2022-11-29T09:15:10.773Z,5.22
2022-11-29T09:17:37.725Z,3.95
2022-11-29T09:20:06.220Z,4.25
2022-11-29T09:22:32.951Z,4.55
2022-11-29T09:24:59.694Z,4.05
2022-11-29T09:27:26.453Z,3.78
2022-11-29T09:29:53.226Z,4.18
2022-11-29T09:32:19.997Z,4.93
2022-11-29T09:34:47.025Z,4.15
2022-11-29T09:37:13.980Z,4.38
2022-11-29T09:39:41.738Z,5.45
2022-11-29T09:42:43.309Z,4.43
2022-11-29T09:45:18.570Z,5.80
2022-11-29T09:48:03.376Z,5.13
2022-11-29T09:51:28.196Z,5.13
2022-11-29T09:54:05.611Z,5.38
2022-11-29T09:56:52.952Z,4.82
2022-11-29T09:59:42.809Z,3.80
2022-11-29T10:02:21.840Z,4.60
2022-11-29T10:05:09.370Z,3.72
2022-11-29T10:07:57.532Z,3.40
2022-11-29T10:10:32.987Z,4.18
2022-11-29T10:13:17.765Z,4.95
2022-11-29T10:15:47.900Z,3.42
2022-11-29T10:18:31.429Z,2.70
2022-11-29T10:21:06.968Z,3.22
2022-11-29T10:23:41.121Z,2.67
2022-11-29T10:26:08.395Z,2.05
2022-11-29T10:28:37.040Z,1.67
2022-11-29T10:31:42.935Z,2.15
2022-11-29T10:34:22.554Z,1.85
2022-11-29T10:36:57.452Z,2.78
2022-11-29T10:39:44.696Z,2.38
2022-11-29T10:42:41.522Z,1.65
2022-11-29T10:45:28.601Z,1.20
2022-11-29T10:48:02.697Z,1.73
2022-11-29T10:50:33.570Z,2.03
2022-11-29T10:53:10.849Z,1.10
2022-11-29T10:55:50.515Z,0.73
2022-11-29T10:58:27.964Z,0.50
2022-11-29T11:01:07.371Z,0.80
2022-11-29T11:03:48.929Z,0.43
2022-11-29T11:06:21.480Z,0.57
2022-11-29T11:09:11.489Z,0.57
2022-11-29T11:11:39.903Z,0.40
2022-11-29T11:14:24.600Z,0.52
2022-11-29T11:16:52.175Z,0.57
2022-11-29T11:19:30.928Z,0.40
2022-11-29T11:22:01.490Z,0.50
2022-11-29T11:24:42.129Z,0.30
2022-11-29T11:27:09.007Z,0.70
2022-11-29T11:29:42.721Z,0.50
2022-11-29T11:32:20.069Z,0.50
2022-11-29T11:35:22.129Z,0.68
2022-11-29T11:37:57.658Z,0.47
2022-11-29T11:40:29.762Z,0.40
2022-11-29T11:43:03.175Z,0.57
2022-11-29T11:45:36.733Z,0.52
2022-11-29T11:48:12.756Z,1.08
2022-11-29T11:50:53.288Z,0.98
2022-11-29T11:53:40.285Z,0.82
2022-11-29T11:56:10.881Z,1.30
2022-11-29T11:58:43.466Z,1.50
2022-11-29T12:01:13.175Z,1.35
2022-11-29T12:03:53.292Z,0.88
2022-11-29T12:06:52.267Z,1.00
2022-11-29T12:09:49.146Z,1.23
2022-11-29T12:12:19.060Z,1.40
2022-11-29T12:15:03.499Z,0.90
2022-11-29T12:17:49.115Z,1.25
2022-11-29T12:20:38.519Z,1.10
2022-11-29T12:23:14.067Z,1.25
2022-11-29T12:25:58.579Z,1.33
2022-11-29T12:28:39.132Z,1.27
2022-11-29T12:31:20.761Z,1.23
2022-11-29T12:34:26.064Z,1.50
2022-11-29T12:37:06.968Z,1.67
2022-11-29T12:40:07.327Z,1.60
2022-11-29T12:43:00.193Z,1.15
2022-11-29T12:45:32.511Z,1.27
2022-11-29T12:48:20.659Z,0.90
2022-11-29T12:51:47.271Z,0.88
2022-11-29T12:54:38.703Z,1.40
2022-11-29T12:57:24.217Z,1.20
2022-11-29T13:00:12.502Z,1.25
2022-11-29T13:03:26.615Z,1.10
2022-11-29T13:05:59.232Z,0.63
2022-11-29T13:09:02.012Z,0.63
2022-11-29T13:11:37.974Z,1.37
2022-11-29T13:14:43.407Z,0.75
2022-11-29T13:18:01.167Z,0.80
2022-11-29T13:21:01.360Z,0.93
2022-11-29T13:26:42.116Z,0.95
2022-11-29T13:29:16.268Z,1.38
2022-11-29T13:31:44.608Z,3.53
2022-11-29T13:34:23.662Z,2.45
2022-11-29T13:37:12.551Z,1.58
2022-11-29T13:40:17.510Z,1.80
2022-11-29T13:43:04.212Z,0.90
2022-11-29T13:45:56.046Z,0.90
2022-11-29T13:48:36.364Z,0.65
2022-11-29T13:51:24.642Z,0.70
2022-11-29T13:53:52.251Z,0.55
2022-11-29T13:56:46.735Z,0.40
2022-11-29T13:59:30.284Z,0.43
2022-11-29T14:01:58.544Z,0.98
2022-11-29T14:04:31.410Z,0.50
2022-11-29T14:07:19.750Z,0.47
2022-11-29T14:10:03.980Z,0.70
2022-11-29T14:12:49.675Z,0.70
2022-11-29T14:15:33.872Z,0.50
2022-11-29T14:18:40.755Z,0.50
2022-11-29T14:21:07.942Z,0.40
2022-11-29T14:23:36.345Z,0.38
2022-11-29T14:26:03.101Z,0.50
2022-11-29T14:28:47.799Z,0.95
2022-11-29T14:31:55.145Z,1.70
2022-11-29T14:34:33.281Z,1.70
2022-11-29T14:37:15.180Z,1.00
2022-11-29T14:39:49.323Z,1.10
2022-11-29T14:42:22.764Z,1.55
2022-11-29T14:45:06.392Z,1.10
2022-11-29T14:47:44.510Z,1.77
2022-11-29T14:50:31.506Z,1.40
2022-11-29T14:52:58.869Z,2.13
2022-11-29T14:55:25.499Z,1.33
2022-11-29T14:58:05.906Z,1.40
2022-11-29T15:00:54.262Z,1.80
2022-11-29T15:03:47.427Z,2.13
2022-11-29T15:06:25.558Z,2.03
2022-11-29T15:11:51.125Z,1.55
2022-11-29T15:14:57.229Z,2.65
2022-11-29T15:18:14.976Z,2.13
2022-11-29T15:21:10.492Z,2.15
2022-11-29T15:23:42.661Z,2.08
2022-11-29T15:26:27.161Z,2.85
2022-11-29T15:28:53.870Z,2.30
2022-11-29T15:31:21.563Z,3.35
2022-11-29T15:33:49.828Z,2.50
2022-11-29T15:36:21.166Z,2.42
2022-11-29T15:38:59.235Z,1.73
2022-11-29T15:41:35.628Z,2.00
2022-11-29T15:44:18.164Z,2.25
2022-11-29T15:46:44.876Z,2.20
2022-11-29T15:49:24.175Z,3.08
2022-11-29T15:51:57.748Z,2.50
2022-11-29T15:54:34.436Z,2.63
2022-11-29T15:57:11.215Z,2.88
2022-11-29T16:00:01.325Z,2.28
2022-11-29T16:02:31.847Z,3.03
2022-11-29T16:05:09.194Z,3.65
2022-11-29T16:07:37.304Z,3.58
2022-11-29T16:10:13.597Z,1.88
2022-11-29T16:13:03.081Z,3.10
2022-11-29T16:15:39.424Z,2.22
2022-11-29T16:18:15.448Z,2.58
2022-11-29T16:20:42.647Z,3.13
2022-11-29T16:23:14.589Z,3.35
2022-11-29T16:25:58.896Z,2.65
2022-11-29T16:28:33.296Z,2.53
2022-11-29T16:31:00.299Z,3.17
2022-11-29T16:33:27.529Z,2.30
2022-11-29T16:36:19.436Z,3.75
2022-11-29T16:38:50.663Z,3.03
2022-11-29T16:41:31.554Z,3.00
2022-11-29T16:43:59.547Z,1.58
2022-11-29T16:46:30.542Z,1.92
2022-11-29T16:49:02.530Z,2.25
